WJA2134 KFLL-CYEG
Flight info
| Callsign | WJA2134 |
|---|---|
| Flight time | N/A |
| Altitude | 36000 |
| Route | KFLL LLBOW ROOOM YOLOO LRICK AGERS PERTS AARPS MMART ENWOD SEAZY YANTI LAJUG TWAIN MIVUK CAMRA IGSOG JEVON KEKBI CYEG |
| Aircraft | B738/M-V/N |
Departure
| Time | 2026-05-04 02:30 |
|---|---|
| Airport | Fort Lauderdale Hollywood International Airport (KFLL) |
Arrival
| Time | N/A |
|---|---|
| Airport | Edmonton International Airport (CYEG) |
| Time | Latitude | Longitude | Altitude | Speed | Heading |
|---|---|---|---|---|---|
| 2026-05-04 02:30 | 26.36148 | -80.21824 | 7587 ft | 376 kts | 328° |
| 2026-05-04 02:30 | 26.38495 | -80.23128 | 8070 ft | 381 kts | 334° |
| 2026-05-04 02:30 | 26.41083 | -80.23853 | 8439 ft | 392 kts | 355° |
| 2026-05-04 02:31 | 26.43800 | -80.23731 | 9083 ft | 392 kts | 1° |
| 2026-05-04 02:31 | 26.46580 | -80.23572 | 8977 ft | 401 kts | 357° |
| 2026-05-04 02:31 | 26.49322 | -80.23793 | 9450 ft | 388 kts | 350° |
| 2026-05-04 02:31 | 26.51899 | -80.24169 | 10531 ft | 371 kts | 349° |
| 2026-05-04 02:32 | 26.54458 | -80.24510 | 11516 ft | 358 kts | 350° |
| 2026-05-04 02:32 | 26.56929 | -80.24792 | 12196 ft | 358 kts | 349° |
| 2026-05-04 02:32 | 26.59453 | -80.25145 | 12282 ft | 373 kts | 347° |
| 2026-05-04 02:32 | 26.62046 | -80.25601 | 12406 ft | 387 kts | 346° |
| 2026-05-04 02:33 | 26.64745 | -80.26091 | 12500 ft | 400 kts | 347° |
| 2026-05-04 02:33 | 26.67573 | -80.26583 | 12606 ft | 412 kts | 347° |
| 2026-05-04 02:33 | 26.70427 | -80.27083 | 12851 ft | 417 kts | 345° |
| 2026-05-04 02:33 | 26.73244 | -80.27840 | 13232 ft | 415 kts | 338° |
| 2026-05-04 02:34 | 26.75928 | -80.28945 | 13689 ft | 412 kts | 333° |
| 2026-05-04 02:34 | 26.78572 | -80.30184 | 14052 ft | 414 kts | 332° |
| 2026-05-04 02:34 | 26.81235 | -80.31439 | 14357 ft | 417 kts | 333° |
| 2026-05-04 02:34 | 26.83912 | -80.32640 | 14671 ft | 420 kts | 333° |
| 2026-05-04 02:35 | 26.86683 | -80.33815 | 14989 ft | 423 kts | 334° |
| 2026-05-04 02:35 | 26.89451 | -80.34958 | 15291 ft | 425 kts | 334° |
| 2026-05-04 02:35 | 26.92225 | -80.36106 | 15609 ft | 427 kts | 334° |
| 2026-05-04 02:35 | 26.95024 | -80.37269 | 15930 ft | 428 kts | 334° |
| 2026-05-04 02:36 | 26.97832 | -80.38412 | 16181 ft | 432 kts | 334° |
| 2026-05-04 02:36 | 27.00660 | -80.39545 | 16453 ft | 435 kts | 334° |
| 2026-05-04 02:36 | 27.03522 | -80.40690 | 16736 ft | 436 kts | 334° |
| 2026-05-04 02:36 | 27.06401 | -80.41847 | 17020 ft | 438 kts | 334° |
| 2026-05-04 02:37 | 27.09271 | -80.43006 | 17283 ft | 440 kts | 334° |
| 2026-05-04 02:37 | 27.12142 | -80.44212 | 17557 ft | 441 kts | 332° |
| 2026-05-04 02:37 | 27.14994 | -80.45470 | 18002 ft | 437 kts | 332° |
| 2026-05-04 02:37 | 27.17765 | -80.46714 | 18495 ft | 432 kts | 331° |
| 2026-05-04 02:38 | 27.20543 | -80.47962 | 18940 ft | 428 kts | 331° |
| 2026-05-04 02:38 | 27.23313 | -80.49201 | 19392 ft | 425 kts | 331° |
| 2026-05-04 02:38 | 27.26066 | -80.50424 | 19853 ft | 422 kts | 330° |
| 2026-05-04 02:38 | 27.28749 | -80.51613 | 20322 ft | 419 kts | 330° |
| 2026-05-04 02:39 | 27.31453 | -80.52809 | 20795 ft | 416 kts | 330° |
| 2026-05-04 02:39 | 27.34128 | -80.53993 | 21277 ft | 413 kts | 330° |
| 2026-05-04 02:39 | 27.36791 | -80.55173 | 21766 ft | 409 kts | 329° |
| 2026-05-04 02:39 | 27.39417 | -80.56404 | 22279 ft | 404 kts | 327° |
| 2026-05-04 02:40 | 27.41979 | -80.57669 | 22843 ft | 399 kts | 326° |
| 2026-05-04 02:40 | 27.44492 | -80.58937 | 23407 ft | 394 kts | 326° |
| 2026-05-04 02:40 | 27.46974 | -80.60196 | 23926 ft | 389 kts | 326° |